createdAt,value
2023-01-18T00:00:31.160Z,75.50
2023-01-18T00:02:03.030Z,83.70
2023-01-18T00:03:36.638Z,92.60
2023-01-18T00:05:09.445Z,87.30
2023-01-18T00:06:41.523Z,85.10
2023-01-18T00:08:18.909Z,87.00
2023-01-18T00:09:50.830Z,90.80
2023-01-18T00:11:22.672Z,79.90
2023-01-18T00:12:54.587Z,95.00
2023-01-18T00:14:26.466Z,91.00
2023-01-18T00:16:07.723Z,89.50
2023-01-18T00:17:47.823Z,94.40
2023-01-18T00:19:19.866Z,85.70
2023-01-18T00:20:51.641Z,96.20
2023-01-18T00:22:23.381Z,88.70
2023-01-18T00:23:56.851Z,101.20
2023-01-18T00:25:30.826Z,88.20
2023-01-18T00:27:02.643Z,91.40
2023-01-18T00:28:35.005Z,92.60
2023-01-18T00:30:11.088Z,90.10
2023-01-18T00:31:42.971Z,97.80
2023-01-18T00:33:14.827Z,106.70
2023-01-18T00:34:48.176Z,84.90
2023-01-18T00:36:21.078Z,89.10
2023-01-18T00:37:54.326Z,86.80
2023-01-18T00:39:26.164Z,94.90
2023-01-18T00:40:57.971Z,89.90
2023-01-18T00:42:48.785Z,90.70
2023-01-18T00:44:20.573Z,83.70
2023-01-18T00:45:52.304Z,90.50
2023-01-18T00:47:24.218Z,95.60
2023-01-18T00:48:58.967Z,86.50
2023-01-18T00:50:30.864Z,80.70
2023-01-18T00:52:02.665Z,74.50
2023-01-18T00:53:34.655Z,87.90
2023-01-18T00:55:07.857Z,93.20
2023-01-18T00:56:39.757Z,86.70
2023-01-18T00:58:11.620Z,93.80
2023-01-18T00:59:43.398Z,91.50
2023-01-18T01:01:16.306Z,75.90
2023-01-18T01:02:48.735Z,88.30
2023-01-18T01:04:39.754Z,86.30
2023-01-18T01:06:34.237Z,90.00
2023-01-18T01:08:07.004Z,83.60
2023-01-18T01:09:38.816Z,67.00
2023-01-18T01:11:13.101Z,77.70
2023-01-18T01:13:03.691Z,84.40
2023-01-18T01:15:00.167Z,84.10
2023-01-18T01:16:51.254Z,76.20
2023-01-18T01:18:42.066Z,71.60
2023-01-18T01:20:34.068Z,73.60
2023-01-18T01:22:24.625Z,78.70
2023-01-18T01:24:15.132Z,76.40
2023-01-18T01:26:05.456Z,74.20
2023-01-18T01:27:37.414Z,58.10
2023-01-18T01:29:09.273Z,56.00
2023-01-18T01:30:41.072Z,69.90
2023-01-18T01:32:13.064Z,73.40
2023-01-18T01:33:46.642Z,73.90
2023-01-18T01:35:18.404Z,76.60
2023-01-18T01:36:51.146Z,64.20
2023-01-18T01:38:23.106Z,59.40
2023-01-18T01:39:54.867Z,80.90
2023-01-18T01:41:32.984Z,73.30
2023-01-18T01:43:10.335Z,65.30
2023-01-18T01:44:52.206Z,79.10
2023-01-18T01:46:53.033Z,64.30
2023-01-18T01:48:24.802Z,66.10
2023-01-18T01:50:11.800Z,66.80
2023-01-18T01:51:49.307Z,74.70
2023-01-18T01:53:21.287Z,71.00
2023-01-18T01:55:26.014Z,66.30
2023-01-18T01:57:15.136Z,62.90
2023-01-18T01:58:54.750Z,76.60
2023-01-18T02:00:27.551Z,78.30
2023-01-18T02:01:59.943Z,68.90
2023-01-18T02:03:32.189Z,70.20
2023-01-18T02:05:09.695Z,60.90
2023-01-18T02:06:41.776Z,78.70
2023-01-18T02:08:22.551Z,74.50
2023-01-18T02:09:57.364Z,75.30
2023-01-18T02:11:29.614Z,62.70
2023-01-18T02:13:01.752Z,67.20
2023-01-18T02:14:33.801Z,73.20
2023-01-18T02:16:33.050Z,70.60
2023-01-18T02:18:24.843Z,68.90
2023-01-18T02:20:19.711Z,51.00
2023-01-18T02:23:00.181Z,37.20
2023-01-18T02:25:27.098Z,61.60
2023-01-18T02:27:05.382Z,64.90
2023-01-18T02:28:39.636Z,67.40
2023-01-18T02:30:30.754Z,65.40
2023-01-18T02:32:14.555Z,62.40
2023-01-18T02:34:13.782Z,76.40
2023-01-18T02:35:57.942Z,59.00
2023-01-18T02:38:07.183Z,88.60
2023-01-18T02:39:55.569Z,88.90
2023-01-18T02:42:07.374Z,90.50
2023-01-18T02:44:01.465Z,73.80
2023-01-18T02:46:05.794Z,74.70
2023-01-18T02:47:38.138Z,76.90
2023-01-18T02:49:18.788Z,84.40
2023-01-18T02:52:47.432Z,58.10
2023-01-18T02:54:24.648Z,70.80
2023-01-18T02:55:56.803Z,71.50
2023-01-18T02:57:31.072Z,81.20
2023-01-18T02:59:43.860Z,74.40
2023-01-18T03:01:30.630Z,62.10
2023-01-18T03:03:05.782Z,66.30
2023-01-18T03:04:45.129Z,59.90
2023-01-18T03:06:21.060Z,65.70
2023-01-18T03:08:06.343Z,63.90
2023-01-18T03:09:41.267Z,56.30
2023-01-18T03:11:27.020Z,51.30
2023-01-18T03:13:06.575Z,64.60
2023-01-18T03:15:14.188Z,77.40
2023-01-18T03:17:03.982Z,46.80
2023-01-18T03:19:01.368Z,51.90
2023-01-18T03:20:41.256Z,79.70
2023-01-18T03:22:13.552Z,70.30
2023-01-18T03:23:45.994Z,70.10
2023-01-18T03:25:26.025Z,78.00
2023-01-18T03:27:18.548Z,83.80
2023-01-18T03:29:16.082Z,75.20
2023-01-18T03:31:11.180Z,73.10
2023-01-18T03:33:01.777Z,73.50
2023-01-18T03:34:48.688Z,80.10
2023-01-18T03:36:33.024Z,54.80
2023-01-18T03:38:05.657Z,60.50
2023-01-18T03:39:45.612Z,61.10
2023-01-18T03:41:20.403Z,61.20
2023-01-18T03:43:12.432Z,85.70
2023-01-18T03:45:13.166Z,81.10
2023-01-18T03:46:45.767Z,67.60
2023-01-18T03:48:17.951Z,86.30
2023-01-18T03:49:50.654Z,76.00
2023-01-18T03:51:47.411Z,82.90
2023-01-18T03:53:39.301Z,61.40
2023-01-18T03:55:26.354Z,61.90
2023-01-18T03:57:08.717Z,70.60
2023-01-18T03:58:42.290Z,68.10
2023-01-18T04:00:15.306Z,62.30
2023-01-18T04:01:49.444Z,65.60
2023-01-18T04:03:21.413Z,61.00
2023-01-18T04:04:57.678Z,77.40
2023-01-18T04:06:33.463Z,69.20
2023-01-18T04:08:05.584Z,65.80
2023-01-18T04:09:37.392Z,83.20
2023-01-18T04:11:09.226Z,88.00
2023-01-18T04:12:41.033Z,67.50
2023-01-18T04:14:13.989Z,76.30
2023-01-18T04:15:46.271Z,80.80
2023-01-18T04:17:19.097Z,75.80
2023-01-18T04:18:52.399Z,72.40
2023-01-18T04:20:24.244Z,66.00
2023-01-18T04:21:56.209Z,73.20
2023-01-18T04:23:28.587Z,74.70
2023-01-18T04:25:00.453Z,69.10
2023-01-18T04:26:34.597Z,61.10
2023-01-18T04:28:07.226Z,64.70
2023-01-18T04:29:39.075Z,71.30
2023-01-18T04:31:11.008Z,78.20
2023-01-18T04:32:46.094Z,71.00
2023-01-18T04:34:17.969Z,62.90
2023-01-18T04:35:51.026Z,79.80
2023-01-18T04:37:31.235Z,72.60
2023-01-18T04:39:03.075Z,78.50
2023-01-18T04:40:34.918Z,76.10
2023-01-18T04:42:06.823Z,69.50
2023-01-18T04:43:38.657Z,65.30
2023-01-18T04:45:14.279Z,66.50
2023-01-18T04:46:47.815Z,57.50
2023-01-18T04:48:19.746Z,56.70
2023-01-18T04:49:51.619Z,56.80
2023-01-18T04:51:27.444Z,66.90
2023-01-18T04:52:59.949Z,51.20
2023-01-18T04:54:34.178Z,62.10
2023-01-18T04:56:06.170Z,55.20
2023-01-18T04:57:37.949Z,49.90
2023-01-18T04:59:16.105Z,53.40
2023-01-18T05:00:47.947Z,64.70
2023-01-18T05:02:20.226Z,66.50
2023-01-18T05:03:56.424Z,50.60
2023-01-18T05:05:28.268Z,50.70
2023-01-18T05:07:02.702Z,48.70
2023-01-18T05:08:35.241Z,51.00
2023-01-18T05:10:07.540Z,67.20
2023-01-18T05:11:39.499Z,52.30
2023-01-18T05:13:11.302Z,49.80
2023-01-18T05:14:43.065Z,61.50
2023-01-18T05:16:20.663Z,51.50
2023-01-18T05:17:52.497Z,72.30
2023-01-18T05:19:24.234Z,68.50
2023-01-18T05:20:56.312Z,76.20
2023-01-18T05:22:29.058Z,60.60
2023-01-18T05:24:01.001Z,61.00
2023-01-18T05:25:32.738Z,62.60
2023-01-18T05:27:06.449Z,75.10
2023-01-18T05:28:38.275Z,59.70
2023-01-18T05:30:11.923Z,54.80
2023-01-18T05:31:46.277Z,50.60
2023-01-18T05:33:20.396Z,54.90
2023-01-18T05:34:52.697Z,57.20
2023-01-18T05:36:24.985Z,53.10
2023-01-18T05:37:56.796Z,57.90
2023-01-18T05:39:28.623Z,59.60
2023-01-18T05:41:01.349Z,77.00
2023-01-18T05:42:33.351Z,75.00
2023-01-18T05:44:06.401Z,80.00
2023-01-18T05:45:38.489Z,74.30
2023-01-18T05:47:10.444Z,78.60
2023-01-18T05:48:42.308Z,67.60
2023-01-18T05:50:14.218Z,67.70
2023-01-18T05:51:47.020Z,62.30
2023-01-18T05:53:22.833Z,63.10
2023-01-18T05:54:54.778Z,59.90
2023-01-18T05:56:26.801Z,72.20
2023-01-18T05:57:58.959Z,58.80
2023-01-18T05:59:30.768Z,67.30
2023-01-18T06:01:02.864Z,69.60
2023-01-18T06:02:34.807Z,70.60
2023-01-18T06:04:06.789Z,54.50
2023-01-18T06:05:38.740Z,71.50
2023-01-18T06:07:15.160Z,86.80
2023-01-18T06:08:47.646Z,64.60
2023-01-18T06:10:20.683Z,74.70
2023-01-18T06:11:52.508Z,72.00
2023-01-18T06:13:28.528Z,76.50
2023-01-18T06:15:00.622Z,73.60
2023-01-18T06:16:32.468Z,72.90
2023-01-18T06:18:05.656Z,62.60
2023-01-18T06:19:38.997Z,70.80
2023-01-18T06:21:12.029Z,67.20
2023-01-18T06:22:45.737Z,74.40
2023-01-18T06:24:17.582Z,77.90
2023-01-18T06:25:49.658Z,95.70
2023-01-18T06:27:21.973Z,84.90
2023-01-18T06:28:54.934Z,83.90
2023-01-18T06:30:26.781Z,78.40
2023-01-18T06:31:58.616Z,81.60
2023-01-18T06:33:30.620Z,89.90
2023-01-18T06:35:02.448Z,80.00
2023-01-18T06:36:34.214Z,76.30
2023-01-18T06:38:06.285Z,80.50
2023-01-18T06:39:40.136Z,74.30
2023-01-18T06:41:11.974Z,74.30
2023-01-18T06:42:47.771Z,69.10
2023-01-18T06:44:19.580Z,61.10
2023-01-18T06:45:56.882Z,66.20
2023-01-18T06:47:28.731Z,81.60
2023-01-18T06:49:00.676Z,76.80
2023-01-18T06:50:32.635Z,85.90
2023-01-18T06:52:04.722Z,89.70
2023-01-18T06:53:37.946Z,95.20
2023-01-18T06:55:12.628Z,82.90
2023-01-18T06:56:44.391Z,81.00
2023-01-18T06:58:16.295Z,84.00
2023-01-18T06:59:48.098Z,80.70
2023-01-18T07:01:20.088Z,75.30
2023-01-18T07:02:56.593Z,77.40
2023-01-18T07:04:28.935Z,82.00
2023-01-18T07:06:03.792Z,83.20
2023-01-18T07:07:35.920Z,87.60
2023-01-18T07:09:10.234Z,103.60
2023-01-18T07:10:42.039Z,87.70
2023-01-18T07:12:16.181Z,69.90
2023-01-18T07:13:50.223Z,79.90
2023-01-18T07:15:22.976Z,90.30
2023-01-18T07:16:54.996Z,88.20
2023-01-18T07:18:26.949Z,79.20
2023-01-18T07:19:58.661Z,88.30
2023-01-18T07:21:33.278Z,92.30
2023-01-18T07:23:05.072Z,86.30
2023-01-18T07:24:36.848Z,81.20
2023-01-18T07:26:15.579Z,105.80
2023-01-18T07:27:49.119Z,101.90
2023-01-18T07:29:22.065Z,102.50
2023-01-18T07:30:53.840Z,106.90
2023-01-18T07:32:26.777Z,91.60
2023-01-18T07:34:00.260Z,77.20
2023-01-18T07:35:32.297Z,79.50
2023-01-18T07:37:04.092Z,82.40
2023-01-18T07:38:37.959Z,99.40
2023-01-18T07:40:11.853Z,97.70
2023-01-18T07:41:43.715Z,97.20
2023-01-18T07:43:16.929Z,80.00
2023-01-18T07:44:48.750Z,84.70
2023-01-18T07:46:21.014Z,91.90
2023-01-18T07:47:53.488Z,97.40
2023-01-18T07:49:27.266Z,92.10
2023-01-18T07:51:03.321Z,87.20
2023-01-18T07:52:35.297Z,107.40
2023-01-18T07:54:07.603Z,82.10
2023-01-18T07:55:40.812Z,87.20
2023-01-18T07:57:13.468Z,84.50
2023-01-18T07:58:47.610Z,91.30
2023-01-18T08:00:20.806Z,91.80
2023-01-18T08:01:52.707Z,80.10
2023-01-18T08:03:24.916Z,89.90
2023-01-18T08:04:56.697Z,93.60
2023-01-18T08:06:28.854Z,86.50
2023-01-18T08:08:00.705Z,86.90
2023-01-18T08:09:36.907Z,85.30
2023-01-18T08:11:10.434Z,85.20
2023-01-18T08:12:42.468Z,65.00
2023-01-18T08:14:14.223Z,68.00
2023-01-18T08:15:46.096Z,73.20
2023-01-18T08:17:18.344Z,86.60
2023-01-18T08:18:50.735Z,84.80
2023-01-18T08:20:24.122Z,88.80
2023-01-18T08:21:56.121Z,76.80
2023-01-18T08:23:28.643Z,80.80
2023-01-18T08:25:00.461Z,83.00
2023-01-18T08:26:34.177Z,79.40
2023-01-18T08:28:06.079Z,76.50
2023-01-18T08:29:37.960Z,80.60
2023-01-18T08:31:17.566Z,75.90
2023-01-18T08:32:51.587Z,81.30
2023-01-18T08:34:23.867Z,74.90
2023-01-18T08:35:55.661Z,79.30
2023-01-18T08:37:28.033Z,77.00
2023-01-18T08:38:59.932Z,73.00
2023-01-18T08:40:32.387Z,69.70
2023-01-18T08:42:05.386Z,84.20
2023-01-18T08:43:37.478Z,83.20
2023-01-18T08:45:10.199Z,71.30
2023-01-18T08:46:42.014Z,70.00
2023-01-18T08:48:14.887Z,67.40
2023-01-18T08:49:46.799Z,58.60
2023-01-18T08:51:20.519Z,69.70
2023-01-18T08:52:53.725Z,71.80
2023-01-18T08:54:26.345Z,65.30
2023-01-18T08:55:58.665Z,57.00
2023-01-18T08:57:30.681Z,67.30
2023-01-18T08:59:02.721Z,69.90
2023-01-18T09:00:35.187Z,78.90
2023-01-18T09:02:07.304Z,81.90
2023-01-18T09:03:39.205Z,73.80
2023-01-18T09:05:11.687Z,63.30
2023-01-18T09:06:44.825Z,72.70
2023-01-18T09:08:18.055Z,61.90
2023-01-18T09:09:50.122Z,71.00
2023-01-18T09:11:24.133Z,68.60
2023-01-18T09:12:56.595Z,65.50
2023-01-18T09:14:28.989Z,73.70
2023-01-18T09:16:04.419Z,64.60
2023-01-18T09:17:36.236Z,61.80
2023-01-18T09:19:08.119Z,69.30
2023-01-18T09:20:42.720Z,66.20
2023-01-18T09:22:14.715Z,69.60
2023-01-18T09:23:49.117Z,64.00
2023-01-18T09:25:20.923Z,59.90
2023-01-18T09:26:53.759Z,66.20
2023-01-18T09:28:25.541Z,59.30
2023-01-18T09:29:57.545Z,53.00
2023-01-18T09:31:30.730Z,59.30
2023-01-18T09:33:02.797Z,62.30
2023-01-18T09:34:35.697Z,54.00
2023-01-18T09:36:12.487Z,53.20
2023-01-18T09:37:46.493Z,57.90
2023-01-18T09:39:20.861Z,57.40
2023-01-18T09:40:54.452Z,55.10
2023-01-18T09:42:37.232Z,50.00
2023-01-18T09:44:40.616Z,53.90
2023-01-18T09:46:23.304Z,50.50
2023-01-18T09:48:05.023Z,52.40
2023-01-18T09:49:55.337Z,51.70
2023-01-18T09:51:39.024Z,39.90
2023-01-18T09:53:36.953Z,45.30
2023-01-18T09:55:28.725Z,44.60
2023-01-18T09:57:50.066Z,47.70
2023-01-18T09:59:56.281Z,32.90
2023-01-18T10:01:33.066Z,43.20
2023-01-18T10:03:18.406Z,41.80
2023-01-18T10:05:13.079Z,44.50
2023-01-18T10:07:00.554Z,42.40
2023-01-18T10:08:32.367Z,37.40
2023-01-18T10:10:05.542Z,40.80
2023-01-18T10:12:01.821Z,43.50
2023-01-18T10:13:53.470Z,42.10
2023-01-18T10:15:34.131Z,36.00
2023-01-18T10:17:18.921Z,49.50
2023-01-18T10:18:55.763Z,35.10
2023-01-18T10:20:49.404Z,38.80
2023-01-18T10:22:30.321Z,42.70
2023-01-18T10:25:01.702Z,38.30
2023-01-18T10:26:38.577Z,23.40
2023-01-18T10:28:27.663Z,29.20
2023-01-18T10:30:11.713Z,31.90
2023-01-18T10:32:18.893Z,33.80
2023-01-18T10:33:57.466Z,37.90
2023-01-18T10:35:44.684Z,39.90
2023-01-18T10:37:33.510Z,38.40
2023-01-18T10:39:36.438Z,32.40
2023-01-18T10:41:21.764Z,30.40
2023-01-18T10:43:00.032Z,35.10
2023-01-18T10:44:32.481Z,30.30
2023-01-18T10:46:18.849Z,36.20
2023-01-18T10:47:53.820Z,37.80
2023-01-18T10:49:43.270Z,30.40
2023-01-18T10:51:38.983Z,26.30
2023-01-18T10:53:31.704Z,32.80
2023-01-18T10:55:07.678Z,31.80
2023-01-18T10:56:40.000Z,30.20
2023-01-18T10:58:14.513Z,34.00
2023-01-18T10:59:46.890Z,27.60
2023-01-18T11:01:22.467Z,31.00
2023-01-18T11:02:57.775Z,25.00
2023-01-18T11:04:34.362Z,22.40
2023-01-18T11:06:08.484Z,24.90
2023-01-18T11:07:40.443Z,30.80
2023-01-18T11:09:42.987Z,26.70
2023-01-18T11:11:48.500Z,27.70
2023-01-18T11:13:32.721Z,26.90
2023-01-18T11:15:13.531Z,25.40
2023-01-18T11:17:11.386Z,24.30
2023-01-18T11:19:16.193Z,27.70
2023-01-18T11:20:51.705Z,18.80
2023-01-18T11:22:24.685Z,23.00
2023-01-18T11:23:56.602Z,24.20
2023-01-18T11:25:45.389Z,19.40
2023-01-18T11:27:25.341Z,20.50
2023-01-18T11:29:00.716Z,19.10
2023-01-18T11:30:35.380Z,27.20
2023-01-18T11:32:25.876Z,21.00
2023-01-18T11:34:07.705Z,23.50
2023-01-18T11:35:40.205Z,24.90
2023-01-18T11:37:34.751Z,22.60
2023-01-18T11:39:25.775Z,22.60
2023-01-18T11:41:23.554Z,20.90
2023-01-18T11:43:03.899Z,17.40
2023-01-18T11:44:43.481Z,20.40
2023-01-18T11:46:27.642Z,23.10
2023-01-18T11:48:13.833Z,22.70
2023-01-18T11:50:22.487Z,23.70
2023-01-18T11:52:05.239Z,17.60
2023-01-18T11:54:26.836Z,22.90
2023-01-18T11:56:32.708Z,20.10
2023-01-18T11:58:16.946Z,25.50
2023-01-18T11:59:49.269Z,21.40
2023-01-18T12:01:30.171Z,14.80
2023-01-18T12:03:22.810Z,18.10
2023-01-18T12:05:13.451Z,21.10
2023-01-18T12:07:26.065Z,16.20
2023-01-18T12:09:39.851Z,19.10
2023-01-18T12:11:48.317Z,21.00
2023-01-18T12:13:50.903Z,21.50
2023-01-18T12:16:11.142Z,15.00
2023-01-18T12:18:15.756Z,15.90
2023-01-18T12:19:59.489Z,14.00
2023-01-18T12:22:05.015Z,15.50
2023-01-18T12:23:52.234Z,14.60
2023-01-18T12:26:06.850Z,17.50
2023-01-18T12:28:07.651Z,17.80
2023-01-18T12:30:07.574Z,15.00
2023-01-18T12:31:51.609Z,15.00
2023-01-18T12:34:07.451Z,17.70
2023-01-18T12:36:13.522Z,16.20
2023-01-18T12:38:15.420Z,16.70
2023-01-18T12:40:13.549Z,16.70
2023-01-18T12:42:20.132Z,16.60
2023-01-18T12:44:46.755Z,16.10
2023-01-18T12:46:49.451Z,10.90
2023-01-18T12:48:43.899Z,14.70
2023-01-18T12:50:31.721Z,15.20
2023-01-18T12:52:18.067Z,15.20
2023-01-18T12:53:56.899Z,15.00
2023-01-18T12:55:34.269Z,13.80
2023-01-18T12:57:07.659Z,12.20
2023-01-18T12:58:44.239Z,11.90
2023-01-18T13:00:31.415Z,12.50
2023-01-18T13:02:23.449Z,13.10
2023-01-18T13:04:04.692Z,17.00
2023-01-18T13:05:57.927Z,17.10
2023-01-18T13:07:42.780Z,12.90
2023-01-18T13:09:24.845Z,15.40
2023-01-18T13:11:12.744Z,13.30
2023-01-18T13:12:45.781Z,13.70
2023-01-18T13:14:38.550Z,16.20
2023-01-18T13:16:31.672Z,16.70
2023-01-18T13:18:25.737Z,16.60
2023-01-18T13:20:07.303Z,15.40
2023-01-18T13:22:04.655Z,14.60
2023-01-18T13:24:39.004Z,14.00
2023-01-18T13:26:21.846Z,14.30
2023-01-18T13:28:23.391Z,14.90
2023-01-18T13:30:25.285Z,13.90
2023-01-18T13:31:58.441Z,12.10
2023-01-18T13:33:40.444Z,14.80
2023-01-18T13:35:33.486Z,12.20
2023-01-18T13:37:14.882Z,10.90
2023-01-18T13:39:01.247Z,16.20
2023-01-18T13:41:13.172Z,15.00
2023-01-18T13:42:45.820Z,14.70
2023-01-18T13:44:50.215Z,15.50
2023-01-18T13:46:25.459Z,15.70
2023-01-18T13:48:25.728Z,15.70
2023-01-18T13:49:57.726Z,17.20
2023-01-18T13:51:42.013Z,16.30
2023-01-18T13:53:13.800Z,14.10
2023-01-18T13:54:46.814Z,16.70
2023-01-18T13:56:28.863Z,14.50
2023-01-18T13:58:02.213Z,18.30
2023-01-18T13:59:38.038Z,15.40
2023-01-18T14:01:24.172Z,15.00
2023-01-18T14:03:19.615Z,18.40
2023-01-18T14:05:08.705Z,16.50
2023-01-18T14:06:45.189Z,18.40
2023-01-18T14:08:31.521Z,17.80
2023-01-18T14:10:08.098Z,16.90
2023-01-18T14:11:45.885Z,15.50
2023-01-18T14:13:19.049Z,14.30
2023-01-18T14:14:52.750Z,12.80
2023-01-18T14:16:29.650Z,13.70
2023-01-18T14:18:02.697Z,17.70
2023-01-18T14:19:49.703Z,14.40
2023-01-18T14:21:58.396Z,15.90
2023-01-18T14:23:57.685Z,15.10
2023-01-18T14:25:42.197Z,9.80
2023-01-18T14:27:34.559Z,14.50
2023-01-18T14:29:48.188Z,13.50
2023-01-18T14:31:41.084Z,15.40
2023-01-18T14:33:25.646Z,15.50
2023-01-18T14:35:04.691Z,16.20
2023-01-18T14:36:38.229Z,14.10
2023-01-18T14:38:18.568Z,16.10
2023-01-18T14:40:15.645Z,17.60
2023-01-18T14:42:03.948Z,14.80
2023-01-18T14:43:48.714Z,16.70
2023-01-18T14:45:32.213Z,14.30
2023-01-18T14:47:23.565Z,17.30
2023-01-18T14:49:01.534Z,16.40
2023-01-18T14:50:41.492Z,20.40
2023-01-18T14:52:18.909Z,17.00
2023-01-18T14:54:02.014Z,17.10
2023-01-18T14:55:35.530Z,15.60
2023-01-18T14:57:10.412Z,15.80
2023-01-18T14:58:59.177Z,22.70
2023-01-18T15:00:31.443Z,16.10
2023-01-18T15:02:17.875Z,16.50
2023-01-18T15:03:56.228Z,19.10
2023-01-18T15:05:30.095Z,15.50
2023-01-18T15:07:08.149Z,16.80
2023-01-18T15:08:42.949Z,17.40
2023-01-18T15:10:19.328Z,19.10
2023-01-18T15:11:57.944Z,16.00
2023-01-18T15:13:29.929Z,18.40
2023-01-18T15:15:13.620Z,16.40
2023-01-18T15:16:50.564Z,14.70
2023-01-18T15:18:26.670Z,18.30
2023-01-18T15:20:08.167Z,15.00
2023-01-18T15:21:40.787Z,16.30
2023-01-18T15:23:13.574Z,18.60
2023-01-18T15:24:47.259Z,14.90
2023-01-18T15:26:42.909Z,16.10
2023-01-18T15:28:23.635Z,21.20
2023-01-18T15:30:00.398Z,18.00
2023-01-18T15:31:32.210Z,17.50
2023-01-18T15:33:05.476Z,12.90
2023-01-18T15:34:42.752Z,16.90
2023-01-18T15:36:15.405Z,14.90
2023-01-18T15:37:48.339Z,16.20
2023-01-18T15:39:20.170Z,18.00
2023-01-18T15:41:14.870Z,21.30
2023-01-18T15:42:48.371Z,15.60
2023-01-18T15:44:53.963Z,15.30
2023-01-18T15:46:28.747Z,17.30
2023-01-18T15:48:15.012Z,11.30
2023-01-18T15:49:54.421Z,14.90
2023-01-18T15:51:45.832Z,18.40
2023-01-18T15:53:32.035Z,18.60
2023-01-18T15:55:09.295Z,14.60
2023-01-18T15:56:41.359Z,12.90
2023-01-18T15:58:30.434Z,14.50
2023-01-18T16:00:05.863Z,21.50
2023-01-18T16:01:40.026Z,14.70
2023-01-18T16:03:20.449Z,18.10
2023-01-18T16:05:21.021Z,16.80
2023-01-18T16:06:56.146Z,15.20
2023-01-18T16:08:28.294Z,15.70
2023-01-18T16:10:20.338Z,19.10
2023-01-18T16:11:56.897Z,17.70
2023-01-18T16:13:38.313Z,12.60
2023-01-18T16:15:31.341Z,20.50
2023-01-18T16:17:15.339Z,14.60
2023-01-18T16:19:09.835Z,15.80
2023-01-18T16:21:04.947Z,12.60
2023-01-18T16:22:39.625Z,13.20
2023-01-18T16:24:55.270Z,13.20
2023-01-18T16:26:31.312Z,13.80
2023-01-18T16:28:05.652Z,13.10
2023-01-18T16:29:54.296Z,15.70
2023-01-18T16:31:29.187Z,10.60
2023-01-18T16:33:17.599Z,17.90
2023-01-18T16:34:50.129Z,16.90
2023-01-18T16:36:24.208Z,15.30
2023-01-18T16:37:57.901Z,17.30
2023-01-18T16:39:40.585Z,17.10
2023-01-18T16:41:17.088Z,11.50
2023-01-18T16:42:56.105Z,15.80
2023-01-18T16:44:32.000Z,9.90
2023-01-18T16:46:05.303Z,15.40
2023-01-18T16:47:37.329Z,15.50
2023-01-18T16:49:13.557Z,19.10
2023-01-18T16:50:45.634Z,19.20
2023-01-18T16:52:19.576Z,23.30
2023-01-18T16:53:52.169Z,17.40
2023-01-18T16:55:23.945Z,21.80
2023-01-18T16:56:55.754Z,11.70
2023-01-18T16:58:28.788Z,15.80
2023-01-18T17:00:00.604Z,19.70
2023-01-18T17:01:32.439Z,17.80
2023-01-18T17:03:04.500Z,23.70
2023-01-18T17:04:37.397Z,11.50
2023-01-18T17:06:20.066Z,15.70
2023-01-18T17:07:53.415Z,16.60
2023-01-18T17:09:40.485Z,19.20
2023-01-18T17:11:19.856Z,15.80
2023-01-18T17:12:51.778Z,14.00
2023-01-18T17:14:23.704Z,18.70
2023-01-18T17:15:55.527Z,21.70
2023-01-18T17:17:27.459Z,19.00
2023-01-18T17:18:59.348Z,23.10
2023-01-18T17:20:31.966Z,15.00
2023-01-18T17:22:03.909Z,20.30
2023-01-18T17:23:39.269Z,18.50
2023-01-18T17:25:11.094Z,15.40
2023-01-18T17:26:44.769Z,18.90
2023-01-18T17:28:19.610Z,12.10
2023-01-18T17:29:51.711Z,18.40
2023-01-18T17:31:23.626Z,15.60
2023-01-18T17:32:55.985Z,13.60
2023-01-18T17:34:29.525Z,18.00
2023-01-18T17:36:01.880Z,13.90
2023-01-18T17:37:34.297Z,11.40
2023-01-18T17:39:09.639Z,14.20
2023-01-18T17:40:44.200Z,12.90
2023-01-18T17:42:25.877Z,14.70
2023-01-18T17:44:01.245Z,10.90
2023-01-18T17:45:33.161Z,12.60
2023-01-18T17:47:07.344Z,13.80
2023-01-18T17:48:40.244Z,14.80
2023-01-18T17:50:19.013Z,14.50
2023-01-18T17:51:51.887Z,13.80
2023-01-18T17:53:23.705Z,42.80
2023-01-18T17:54:56.383Z,34.30
2023-01-18T17:56:28.745Z,16.40
2023-01-18T17:58:00.989Z,14.20
2023-01-18T17:59:35.696Z,12.90
2023-01-18T18:01:14.268Z,12.00
2023-01-18T18:02:46.679Z,9.70
2023-01-18T18:04:19.102Z,8.80
2023-01-18T18:05:59.099Z,13.80
2023-01-18T18:07:31.673Z,13.70
2023-01-18T18:09:04.635Z,12.60
2023-01-18T18:10:36.625Z,12.30
2023-01-18T18:12:12.197Z,11.40
2023-01-18T18:13:44.107Z,11.70
2023-01-18T18:15:15.863Z,12.60
2023-01-18T18:16:47.783Z,11.30
2023-01-18T18:18:22.935Z,11.50
2023-01-18T18:19:56.422Z,10.10
2023-01-18T18:21:29.577Z,10.80
2023-01-18T18:23:01.876Z,11.40
2023-01-18T18:24:34.170Z,9.40
2023-01-18T18:26:08.826Z,10.60
2023-01-18T18:27:47.813Z,9.60
2023-01-18T18:29:19.818Z,13.70
2023-01-18T18:30:52.077Z,11.40
2023-01-18T18:32:24.022Z,16.70
2023-01-18T18:33:55.811Z,22.10
2023-01-18T18:35:27.982Z,26.80
2023-01-18T18:37:00.768Z,30.10
2023-01-18T18:38:32.738Z,18.50
2023-01-18T18:40:07.049Z,13.80
2023-01-18T18:41:39.009Z,15.40
2023-01-18T18:43:14.374Z,13.40
2023-01-18T18:44:46.226Z,9.20
2023-01-18T18:46:18.053Z,15.40
2023-01-18T18:47:50.530Z,12.00
2023-01-18T18:49:22.382Z,12.70
2023-01-18T18:50:54.291Z,12.40
2023-01-18T18:52:26.052Z,15.00
2023-01-18T18:53:57.808Z,20.10
2023-01-18T18:55:29.829Z,18.30
2023-01-18T18:57:03.447Z,19.20
2023-01-18T18:58:36.824Z,16.50
2023-01-18T19:00:10.091Z,13.50
2023-01-18T19:01:41.936Z,12.50
2023-01-18T19:03:13.854Z,12.90
2023-01-18T19:04:45.797Z,16.10
2023-01-18T19:06:21.262Z,20.10
2023-01-18T19:07:53.068Z,19.10
2023-01-18T19:09:26.193Z,20.90
2023-01-18T19:11:00.659Z,18.40
2023-01-18T19:12:32.756Z,12.90
2023-01-18T19:14:06.264Z,17.40
2023-01-18T19:15:38.068Z,19.20
2023-01-18T19:17:15.822Z,12.60
2023-01-18T19:18:58.125Z,10.80
2023-01-18T19:20:30.193Z,14.40
2023-01-18T19:22:02.943Z,12.10
2023-01-18T19:23:35.190Z,17.80
2023-01-18T19:25:09.821Z,16.30
2023-01-18T19:26:42.027Z,17.60
2023-01-18T19:28:16.151Z,13.90
2023-01-18T19:29:49.640Z,13.50
2023-01-18T19:31:24.513Z,15.40
2023-01-18T19:32:56.835Z,10.80
2023-01-18T19:34:29.365Z,15.00
2023-01-18T19:36:14.784Z,15.90
2023-01-18T19:37:49.383Z,13.90
2023-01-18T19:39:22.772Z,14.80
2023-01-18T19:40:59.459Z,12.90
2023-01-18T19:42:31.265Z,16.90
2023-01-18T19:44:03.635Z,12.60
2023-01-18T19:45:38.018Z,10.60
2023-01-18T19:47:09.876Z,14.00
2023-01-18T19:48:43.776Z,15.00
2023-01-18T19:50:16.556Z,11.80
2023-01-18T19:51:48.484Z,10.90
2023-01-18T19:53:20.434Z,15.80
2023-01-18T19:54:52.239Z,15.80
2023-01-18T19:56:25.945Z,14.10
2023-01-18T19:58:00.318Z,11.50
2023-01-18T19:59:33.534Z,13.60
2023-01-18T20:01:26.610Z,11.60
2023-01-18T20:03:06.199Z,12.40
2023-01-18T20:04:38.821Z,11.00
2023-01-18T20:06:15.428Z,14.90
2023-01-18T20:07:49.430Z,10.60
2023-01-18T20:09:25.120Z,13.30
2023-01-18T20:11:14.458Z,9.20
2023-01-18T20:12:49.710Z,9.10
2023-01-18T20:14:24.348Z,13.20
2023-01-18T20:15:57.115Z,12.30
2023-01-18T20:17:29.397Z,8.60
2023-01-18T20:19:05.130Z,10.50
2023-01-18T20:20:36.980Z,12.70
2023-01-18T20:22:10.543Z,13.20
2023-01-18T20:23:46.706Z,15.00
2023-01-18T20:25:19.985Z,9.10
2023-01-18T20:26:51.978Z,12.70
2023-01-18T20:28:23.895Z,12.20
2023-01-18T20:29:55.818Z,11.80
2023-01-18T20:31:29.572Z,11.20
2023-01-18T20:33:02.283Z,15.10
2023-01-18T20:34:36.305Z,15.20
2023-01-18T20:36:08.994Z,14.20
2023-01-18T20:37:42.094Z,9.80
2023-01-18T20:39:14.721Z,12.30
2023-01-18T20:40:46.614Z,12.60
2023-01-18T20:42:20.009Z,11.10
2023-01-18T20:43:52.630Z,12.70
2023-01-18T20:45:24.420Z,11.20
2023-01-18T20:46:58.501Z,13.60
2023-01-18T20:48:35.179Z,10.60
2023-01-18T20:50:07.487Z,11.00
2023-01-18T20:51:41.728Z,14.00
2023-01-18T20:53:13.635Z,13.70
2023-01-18T20:54:45.474Z,15.00
2023-01-18T20:56:28.808Z,13.60
2023-01-18T20:58:01.336Z,14.40
2023-01-18T20:59:33.350Z,10.60
2023-01-18T21:01:15.849Z,16.60
2023-01-18T21:02:49.281Z,13.50
2023-01-18T21:04:21.287Z,9.10
2023-01-18T21:05:53.765Z,9.50
2023-01-18T21:07:26.307Z,9.90
2023-01-18T21:09:01.475Z,12.40
2023-01-18T21:10:39.298Z,12.20
2023-01-18T21:12:11.447Z,12.60
2023-01-18T21:13:43.815Z,7.10